createdAt,value
2022-10-01T00:01:47.568Z,95.60
2022-10-01T00:04:18.760Z,96.20
2022-10-01T00:06:49.829Z,96.60
2022-10-01T00:09:21.791Z,95.20
2022-10-01T00:11:53.784Z,95.40
2022-10-01T00:14:24.929Z,95.10
2022-10-01T00:17:16.750Z,95.20
2022-10-01T00:19:47.771Z,96.00
2022-10-01T00:22:20.451Z,96.10
2022-10-01T00:24:51.614Z,95.90
2022-10-01T00:27:23.856Z,95.70
2022-10-01T00:29:55.415Z,96.00
2022-10-01T00:32:27.121Z,95.70
2022-10-01T00:34:58.228Z,95.90
2022-10-01T00:37:29.685Z,95.90
2022-10-01T00:40:00.781Z,95.80
2022-10-01T00:42:31.945Z,95.90
2022-10-01T00:45:03.708Z,95.70
2022-10-01T00:47:43.614Z,95.70
2022-10-01T00:50:34.096Z,95.70
2022-10-01T00:53:35.774Z,95.60
2022-10-01T00:56:08.661Z,95.40
2022-10-01T00:58:40.912Z,95.50
2022-10-01T01:01:12.228Z,95.70
2022-10-01T01:03:43.272Z,95.70
2022-10-01T01:06:14.403Z,95.80
2022-10-01T01:08:46.064Z,95.80
2022-10-01T01:11:56.322Z,95.70
2022-10-01T01:18:05.824Z,96.20
2022-10-01T01:21:08.681Z,95.90
2022-10-01T01:24:06.726Z,96.20
2022-10-01T01:30:09.822Z,96.00
2022-10-01T01:33:04.562Z,95.90
2022-10-01T01:35:41.111Z,95.80
2022-10-01T01:38:19.393Z,95.70
2022-10-01T01:40:53.326Z,95.60
2022-10-01T01:43:31.011Z,95.90
2022-10-01T01:46:04.981Z,95.50
2022-10-01T01:48:41.208Z,95.30
2022-10-01T01:51:25.057Z,95.40
2022-10-01T01:53:56.655Z,95.30
2022-10-01T01:56:27.773Z,95.50
2022-10-01T01:59:00.204Z,95.40
2022-10-01T02:01:45.533Z,95.30
2022-10-01T02:04:40.854Z,95.20
2022-10-01T02:07:27.632Z,95.20
2022-10-01T02:09:58.657Z,95.20
2022-10-01T02:12:51.322Z,95.00
2022-10-01T02:15:45.477Z,95.20
2022-10-01T02:18:25.131Z,95.10
2022-10-01T02:21:14.469Z,95.20
2022-10-01T02:24:15.777Z,95.10
2022-10-01T02:26:50.776Z,95.00
2022-10-01T02:29:51.272Z,95.00
2022-10-01T02:32:23.799Z,94.70
2022-10-01T02:34:56.630Z,95.00
2022-10-01T02:37:29.216Z,94.80
2022-10-01T02:40:27.194Z,94.60
2022-10-01T02:43:07.750Z,94.60
2022-10-01T02:45:42.853Z,94.40
2022-10-01T02:48:19.535Z,94.60
2022-10-01T02:50:56.750Z,94.50
2022-10-01T02:53:45.926Z,94.60
2022-10-01T02:56:37.101Z,94.70
2022-10-01T02:59:11.265Z,94.60
2022-10-01T03:04:27.354Z,94.80
2022-10-01T03:07:04.827Z,94.90
2022-10-01T03:09:38.265Z,94.70
2022-10-01T03:12:10.322Z,94.70
2022-10-01T03:14:41.419Z,94.90
2022-10-01T03:17:14.966Z,94.70
2022-10-01T03:19:51.269Z,94.70
2022-10-01T03:22:25.742Z,94.70
2022-10-01T03:24:56.846Z,94.70
2022-10-01T03:27:28.510Z,94.70
2022-10-01T03:29:59.710Z,94.60
2022-10-01T03:32:30.899Z,94.70
2022-10-01T03:35:02.713Z,94.70
2022-10-01T03:37:34.014Z,94.80
2022-10-01T03:40:05.841Z,94.70
2022-10-01T03:42:37.006Z,94.80
2022-10-01T03:45:12.018Z,94.80
2022-10-01T03:47:43.231Z,94.90
2022-10-01T03:50:15.189Z,94.70
2022-10-01T03:52:46.318Z,94.70
2022-10-01T03:55:17.498Z,94.70
2022-10-01T03:57:48.698Z,94.60
2022-10-01T04:00:20.044Z,94.60
2022-10-01T04:02:51.260Z,94.50
2022-10-01T04:05:22.305Z,94.60
2022-10-01T04:07:53.570Z,94.50
2022-10-01T04:10:44.397Z,94.70
2022-10-01T04:13:15.652Z,94.60
2022-10-01T04:15:47.374Z,94.70
2022-10-01T04:18:20.554Z,94.70
2022-10-01T04:20:51.731Z,94.70
2022-10-01T04:23:24.031Z,94.80
2022-10-01T04:25:55.817Z,94.80
2022-10-01T04:28:27.020Z,94.70
2022-10-01T04:31:16.787Z,94.80
2022-10-01T04:33:48.059Z,94.80
2022-10-01T04:36:19.362Z,94.80
2022-10-01T04:38:59.271Z,94.90
2022-10-01T04:41:34.156Z,94.80
2022-10-01T04:44:05.973Z,94.80
2022-10-01T04:46:37.752Z,94.80
2022-10-01T04:51:56.307Z,94.80
2022-10-01T04:54:27.530Z,94.80
2022-10-01T04:57:18.825Z,95.00
2022-10-01T05:00:12.420Z,94.80
2022-10-01T05:02:53.518Z,94.80
2022-10-01T05:05:45.462Z,94.80
2022-10-01T05:08:16.764Z,94.70
2022-10-01T05:10:48.303Z,94.80
2022-10-01T05:13:19.654Z,94.70
2022-10-01T05:16:13.547Z,94.70
2022-10-01T05:18:44.927Z,94.70
2022-10-01T05:21:17.095Z,94.70
2022-10-01T05:23:48.616Z,94.60
2022-10-01T05:26:19.748Z,94.70
2022-10-01T05:28:52.755Z,94.60
2022-10-01T05:31:24.483Z,94.70
2022-10-01T05:33:56.028Z,94.60
2022-10-01T05:36:27.297Z,94.70
2022-10-01T05:39:18.448Z,94.70
2022-10-01T05:41:49.795Z,94.70
2022-10-01T05:44:21.357Z,94.70
2022-10-01T05:46:54.043Z,94.70
2022-10-01T05:49:26.893Z,94.80
2022-10-01T05:51:58.367Z,94.80
2022-10-01T05:54:32.481Z,94.70
2022-10-01T05:57:03.723Z,94.80
2022-10-01T05:59:59.065Z,94.70
2022-10-01T06:02:30.416Z,94.90
2022-10-01T06:05:02.729Z,94.80
2022-10-01T06:07:34.531Z,94.90
2022-10-01T06:10:05.999Z,94.80
2022-10-01T06:12:37.371Z,95.10
2022-10-01T06:15:12.590Z,94.60
2022-10-01T06:17:46.985Z,94.70
2022-10-01T06:20:20.842Z,94.60
2022-10-01T06:22:57.929Z,94.70
2022-10-01T06:25:33.210Z,94.60
2022-10-01T06:28:10.494Z,94.70
2022-10-01T06:30:42.145Z,94.70
2022-10-01T06:33:16.118Z,94.60
2022-10-01T06:35:52.704Z,94.60
2022-10-01T06:38:25.487Z,94.60
2022-10-01T06:41:00.087Z,94.50
2022-10-01T06:43:33.358Z,94.60
2022-10-01T06:46:06.167Z,94.90
2022-10-01T06:48:38.007Z,94.60
2022-10-01T06:51:10.128Z,94.70
2022-10-01T06:53:41.556Z,94.60
2022-10-01T06:56:16.337Z,94.70
2022-10-01T06:58:47.685Z,94.80
2022-10-01T07:01:22.471Z,94.70
2022-10-01T07:04:19.822Z,94.70
2022-10-01T07:06:51.154Z,94.70
2022-10-01T07:09:42.959Z,94.70
2022-10-01T07:12:14.267Z,94.70
2022-10-01T07:14:45.621Z,94.60
2022-10-01T07:17:17.080Z,94.60
2022-10-01T07:19:48.608Z,94.70
2022-10-01T07:22:20.868Z,94.60
2022-10-01T07:24:52.386Z,94.60
2022-10-01T07:27:23.489Z,94.70
2022-10-01T07:29:54.972Z,94.60
2022-10-01T07:32:26.254Z,94.70
2022-10-01T07:34:57.522Z,94.70
2022-10-01T07:37:29.154Z,94.60
2022-10-01T07:40:03.086Z,94.60
2022-10-01T07:42:38.886Z,94.60
2022-10-01T07:45:11.088Z,94.70
2022-10-01T07:47:43.446Z,94.80
2022-10-01T07:50:14.799Z,94.80
2022-10-01T07:52:46.255Z,94.70
2022-10-01T07:55:17.791Z,94.60
2022-10-01T07:58:02.109Z,94.40
2022-10-01T08:00:35.234Z,94.50
2022-10-01T08:03:10.464Z,94.50
2022-10-01T08:06:03.830Z,94.50
2022-10-01T08:08:35.554Z,94.50
2022-10-01T08:11:08.637Z,94.60
2022-10-01T08:13:40.403Z,94.50
2022-10-01T08:16:13.341Z,94.40
2022-10-01T08:18:44.521Z,94.40
2022-10-01T08:21:15.899Z,94.10
2022-10-01T08:23:47.111Z,94.30
2022-10-01T08:26:18.235Z,94.20
2022-10-01T08:28:49.527Z,94.50
2022-10-01T08:31:21.015Z,94.10
2022-10-01T08:34:12.028Z,94.20
2022-10-01T08:36:43.167Z,94.10
2022-10-01T08:39:16.098Z,94.10
2022-10-01T08:41:47.268Z,94.10
2022-10-01T08:44:42.685Z,93.90
2022-10-01T08:47:23.105Z,94.20
2022-10-01T08:50:00.877Z,94.00
2022-10-01T08:52:40.128Z,94.00
2022-10-01T08:55:19.632Z,94.00
2022-10-01T08:58:03.981Z,93.80
2022-10-01T09:00:41.550Z,93.80
2022-10-01T09:03:16.729Z,93.80
2022-10-01T09:06:19.937Z,93.80
2022-10-01T09:09:19.147Z,93.90
2022-10-01T09:12:14.086Z,93.60
2022-10-01T09:15:16.950Z,93.60
2022-10-01T09:18:06.775Z,93.80
2022-10-01T09:21:01.667Z,93.70
2022-10-01T09:23:40.021Z,93.80
2022-10-01T09:26:14.300Z,93.60
2022-10-01T09:28:56.452Z,93.70
2022-10-01T09:31:46.777Z,93.80
2022-10-01T09:34:28.612Z,93.70
2022-10-01T09:37:30.872Z,93.80
2022-10-01T09:40:25.325Z,93.80
2022-10-01T09:42:56.462Z,93.70
2022-10-01T09:45:28.561Z,93.80
2022-10-01T09:48:06.659Z,93.80
2022-10-01T09:50:44.558Z,93.90
2022-10-01T09:53:20.004Z,93.70
2022-10-01T09:55:57.804Z,93.60
2022-10-01T09:58:31.962Z,93.70
2022-10-01T10:01:03.156Z,93.80
2022-10-01T10:03:34.764Z,93.90
2022-10-01T10:06:08.233Z,93.80
2022-10-01T10:08:42.207Z,93.60
2022-10-01T10:11:22.638Z,93.70
2022-10-01T10:13:57.794Z,93.90
2022-10-01T10:16:31.834Z,93.90
2022-10-01T10:19:11.595Z,93.80
2022-10-01T10:25:06.705Z,93.90
2022-10-01T10:27:38.118Z,93.60
2022-10-01T10:30:19.969Z,93.60
2022-10-01T10:32:51.195Z,93.70
2022-10-01T10:35:29.759Z,93.70
2022-10-01T10:38:01.906Z,93.80
2022-10-01T10:41:15.019Z,93.80
2022-10-01T10:43:46.319Z,93.90
2022-10-01T10:46:28.353Z,94.00
2022-10-01T10:49:06.079Z,94.00
2022-10-01T10:51:50.129Z,94.10
2022-10-01T10:54:24.429Z,94.30
2022-10-01T10:57:04.379Z,94.50
2022-10-01T10:59:36.219Z,94.50
2022-10-01T11:02:17.547Z,94.70
2022-10-01T11:04:49.023Z,94.70
2022-10-01T11:07:25.247Z,94.80
2022-10-01T11:10:33.776Z,94.70
2022-10-01T11:13:13.905Z,94.50
2022-10-01T11:15:53.687Z,94.50
2022-10-01T11:18:32.723Z,94.40
2022-10-01T11:21:38.810Z,94.10
2022-10-01T11:24:25.128Z,94.20
2022-10-01T11:27:45.293Z,94.00
2022-10-01T11:30:24.159Z,94.00
2022-10-01T11:33:04.938Z,94.00
2022-10-01T11:36:08.782Z,94.00
2022-10-01T11:38:54.110Z,94.20
2022-10-01T11:41:57.377Z,93.90
2022-10-01T11:44:51.368Z,93.90
2022-10-01T11:47:32.490Z,93.90
2022-10-01T11:50:42.220Z,93.70
2022-10-01T11:53:32.207Z,93.90
2022-10-01T11:56:31.687Z,93.80
2022-10-01T11:59:34.897Z,93.80
2022-10-01T12:02:18.262Z,93.70
2022-10-01T12:04:59.626Z,93.90
2022-10-01T12:07:39.701Z,93.90
2022-10-01T12:10:34.762Z,94.00
2022-10-01T12:13:18.013Z,93.80
2022-10-01T12:15:52.576Z,93.90
2022-10-01T12:18:52.239Z,94.00
2022-10-01T12:21:31.880Z,94.00
2022-10-01T12:24:16.270Z,93.90
2022-10-01T12:27:27.613Z,94.10
2022-10-01T12:30:08.214Z,94.20
2022-10-01T12:32:45.745Z,94.70
2022-10-01T12:36:00.727Z,93.90
2022-10-01T12:39:04.210Z,93.80
2022-10-01T12:42:03.145Z,93.70
2022-10-01T12:45:14.096Z,93.70
2022-10-01T12:48:05.600Z,93.70
2022-10-01T12:50:39.626Z,93.70
2022-10-01T12:53:18.049Z,94.00
2022-10-01T12:55:57.069Z,94.20
2022-10-01T12:58:57.616Z,93.70
2022-10-01T13:01:34.645Z,93.70
2022-10-01T13:04:42.062Z,93.60
2022-10-01T13:07:31.285Z,93.70
2022-10-01T13:10:20.805Z,93.80
2022-10-01T13:13:09.831Z,93.60
2022-10-01T13:15:48.600Z,93.70
2022-10-01T13:18:43.843Z,93.60
2022-10-01T13:21:49.822Z,93.60
2022-10-01T13:24:42.466Z,94.10
2022-10-01T13:27:25.788Z,95.40
2022-10-01T13:30:02.569Z,94.10
2022-10-01T13:32:36.997Z,93.70
2022-10-01T13:35:28.602Z,93.60
2022-10-01T13:38:22.244Z,94.40
2022-10-01T13:41:02.556Z,93.80
2022-10-01T13:43:36.203Z,93.60
2022-10-01T13:46:10.916Z,94.00
2022-10-01T13:48:49.277Z,93.30
2022-10-01T13:51:21.964Z,93.80
2022-10-01T13:54:02.075Z,93.60
2022-10-01T13:56:38.802Z,93.90
2022-10-01T13:59:48.653Z,95.10
2022-10-01T14:02:55.285Z,94.30
2022-10-01T14:05:45.068Z,94.00
2022-10-01T14:08:47.482Z,93.70
2022-10-01T14:11:48.208Z,93.80
2022-10-01T14:14:59.952Z,96.00
2022-10-01T14:17:34.170Z,93.90
2022-10-01T14:20:06.635Z,93.70
2022-10-01T14:22:44.050Z,94.40
2022-10-01T14:26:03.476Z,94.00
2022-10-01T14:28:51.064Z,95.30
2022-10-01T14:31:51.221Z,95.20
2022-10-01T14:34:54.726Z,94.50
2022-10-01T14:37:26.236Z,93.90
2022-10-01T14:40:25.085Z,93.80
2022-10-01T14:43:04.312Z,94.30
2022-10-01T14:45:35.642Z,94.90
2022-10-01T14:48:09.309Z,94.00
2022-10-01T14:50:44.505Z,94.40
2022-10-01T14:53:23.184Z,93.70
2022-10-01T14:55:57.713Z,95.00
2022-10-01T14:58:29.160Z,94.40
2022-10-01T15:01:01.341Z,95.00
2022-10-01T15:03:40.795Z,95.50
2022-10-01T15:06:21.096Z,94.40
2022-10-01T15:08:57.426Z,94.20
2022-10-01T15:11:33.718Z,94.30
2022-10-01T15:14:09.569Z,94.30
2022-10-01T15:16:41.084Z,94.00
2022-10-01T15:19:17.488Z,95.60
2022-10-01T15:21:53.341Z,94.80
2022-10-01T15:24:48.136Z,95.00
2022-10-01T15:27:22.842Z,95.10
2022-10-01T15:30:19.713Z,95.60
2022-10-01T15:32:52.448Z,95.00
2022-10-01T15:35:25.494Z,94.30
2022-10-01T15:38:01.912Z,94.80
2022-10-01T15:40:37.829Z,95.70
2022-10-01T15:43:17.719Z,94.60
2022-10-01T15:46:05.478Z,96.40
2022-10-01T15:48:37.057Z,94.50
2022-10-01T15:51:29.401Z,94.10
2022-10-01T15:54:17.160Z,93.70
2022-10-01T15:56:50.647Z,96.80
2022-10-01T15:59:22.627Z,95.10
2022-10-01T16:02:22.831Z,96.60
2022-10-01T16:04:58.428Z,94.30
2022-10-01T16:07:36.391Z,94.00
2022-10-01T16:10:35.659Z,94.30
2022-10-01T16:13:40.888Z,95.00
2022-10-01T16:16:28.174Z,99.30
2022-10-01T16:19:21.733Z,95.00
2022-10-01T16:22:16.789Z,94.80
2022-10-01T16:24:50.674Z,94.20
2022-10-01T16:27:23.550Z,94.90
2022-10-01T16:30:13.469Z,93.80
2022-10-01T16:32:44.879Z,94.30
2022-10-01T16:35:33.801Z,96.30
2022-10-01T16:38:10.521Z,95.60
2022-10-01T16:40:46.642Z,95.60
2022-10-01T16:43:40.623Z,95.70
2022-10-01T16:46:11.684Z,94.80
2022-10-01T16:48:43.185Z,94.00
2022-10-01T16:51:14.345Z,94.20
2022-10-01T16:53:45.670Z,94.20
2022-10-01T16:56:17.055Z,95.00
2022-10-01T16:58:48.197Z,93.90
2022-10-01T17:01:19.424Z,94.50
2022-10-01T17:03:50.596Z,95.30
2022-10-01T17:06:21.704Z,94.50
2022-10-01T17:08:53.393Z,94.90
2022-10-01T17:11:29.766Z,94.10
2022-10-01T17:14:01.167Z,95.30
2022-10-01T17:16:32.280Z,93.60
2022-10-01T17:19:03.840Z,93.40
2022-10-01T17:21:34.855Z,93.30
2022-10-01T17:24:06.072Z,94.40
2022-10-01T17:26:37.146Z,96.20
2022-10-01T17:29:10.230Z,94.80
2022-10-01T17:31:42.747Z,93.30
2022-10-01T17:34:14.527Z,93.80
2022-10-01T17:36:46.962Z,93.10
2022-10-01T17:39:17.961Z,93.30
2022-10-01T17:41:48.842Z,94.90
2022-10-01T17:44:19.805Z,96.40
2022-10-01T17:46:50.939Z,95.50
2022-10-01T17:49:21.929Z,94.70
2022-10-01T17:51:54.926Z,93.90
2022-10-01T17:54:26.590Z,94.40
2022-10-01T17:56:57.948Z,94.50
2022-10-01T17:59:29.113Z,94.40
2022-10-01T18:02:00.634Z,93.90
2022-10-01T18:04:31.571Z,94.80
2022-10-01T18:07:02.954Z,93.20
2022-10-01T18:09:33.989Z,93.30
2022-10-01T18:12:05.500Z,94.20
2022-10-01T18:14:36.756Z,94.30
2022-10-01T18:17:08.074Z,93.20
2022-10-01T18:19:54.503Z,94.80
2022-10-01T18:22:25.905Z,94.10
2022-10-01T18:24:57.187Z,93.70
2022-10-01T18:27:51.371Z,93.10
2022-10-01T18:30:22.545Z,96.70
2022-10-01T18:32:58.179Z,95.50
2022-10-01T18:35:31.770Z,95.00
2022-10-01T18:38:08.230Z,94.70
2022-10-01T18:40:58.142Z,93.70
2022-10-01T18:43:32.665Z,95.40
2022-10-01T18:46:14.027Z,94.40
2022-10-01T18:49:02.961Z,94.70
2022-10-01T18:51:43.075Z,93.50
2022-10-01T18:54:23.762Z,93.40
2022-10-01T18:57:28.365Z,92.90
2022-10-01T19:00:07.793Z,94.30
2022-10-01T19:02:59.771Z,94.50
2022-10-01T19:05:54.772Z,93.70
2022-10-01T19:08:32.511Z,92.80
2022-10-01T19:11:19.678Z,93.30
2022-10-01T19:14:12.056Z,93.30
2022-10-01T19:17:17.763Z,93.90
2022-10-01T19:20:25.211Z,94.00
2022-10-01T19:23:18.733Z,93.90
2022-10-01T19:26:36.706Z,94.60
2022-10-01T19:29:40.049Z,93.00
2022-10-01T19:32:23.660Z,93.70
2022-10-01T19:35:04.210Z,93.40
2022-10-01T19:37:40.908Z,93.30
2022-10-01T19:40:46.451Z,93.40
2022-10-01T19:43:26.770Z,92.80
2022-10-01T19:46:37.431Z,93.70
2022-10-01T19:49:11.620Z,93.70
2022-10-01T19:52:11.430Z,93.60
2022-10-01T19:54:56.611Z,92.90
2022-10-01T19:57:33.242Z,92.70
2022-10-01T20:00:18.641Z,92.60
2022-10-01T20:02:59.177Z,92.70
2022-10-01T20:05:34.386Z,93.20
2022-10-01T20:08:17.089Z,93.20
2022-10-01T20:11:02.446Z,93.10
2022-10-01T20:13:54.768Z,92.60
2022-10-01T20:16:43.223Z,92.70
2022-10-01T20:19:37.323Z,92.90
2022-10-01T20:22:21.280Z,92.80
2022-10-01T20:24:57.834Z,92.70
2022-10-01T20:30:30.098Z,92.60
2022-10-01T20:33:31.477Z,92.60
2022-10-01T20:36:16.448Z,92.60
2022-10-01T20:39:24.318Z,92.70
2022-10-01T20:41:57.722Z,94.00
2022-10-01T20:44:37.382Z,92.60
2022-10-01T20:47:49.006Z,92.60
2022-10-01T20:50:45.081Z,92.80
2022-10-01T20:53:27.495Z,94.60
2022-10-01T20:56:07.260Z,93.70
2022-10-01T20:58:52.078Z,92.80
2022-10-01T21:01:26.767Z,94.80
2022-10-01T21:04:08.610Z,93.70
2022-10-01T21:07:12.510Z,92.80
2022-10-01T21:09:53.095Z,93.10
2022-10-01T21:13:12.365Z,94.60
2022-10-01T21:16:07.059Z,93.30
2022-10-01T21:19:10.222Z,92.70
2022-10-01T21:21:55.371Z,92.60
2022-10-01T21:24:45.541Z,92.90
2022-10-01T21:27:16.380Z,93.30
2022-10-01T21:30:04.248Z,93.40
2022-10-01T21:33:11.130Z,93.00
2022-10-01T21:36:07.822Z,92.80
2022-10-01T21:39:07.908Z,93.80
2022-10-01T21:41:51.835Z,93.60
2022-10-01T21:44:43.495Z,92.90
2022-10-01T21:47:50.873Z,92.60
2022-10-01T21:50:47.883Z,92.80
2022-10-01T21:53:40.910Z,93.20
2022-10-01T21:56:28.478Z,92.60
2022-10-01T21:59:35.398Z,92.70
2022-10-01T22:02:41.928Z,93.20
2022-10-01T22:05:42.592Z,92.70
2022-10-01T22:08:44.083Z,92.50
2022-10-01T22:11:40.830Z,93.50
2022-10-01T22:14:21.216Z,92.90
2022-10-01T22:17:10.570Z,93.70
2022-10-01T22:19:46.280Z,93.70
2022-10-01T22:22:17.135Z,94.20
2022-10-01T22:25:00.814Z,93.70
2022-10-01T22:27:55.502Z,92.70
2022-10-01T22:30:30.161Z,92.60
2022-10-01T22:33:26.884Z,92.70
2022-10-01T22:36:21.448Z,93.30
2022-10-01T22:38:58.453Z,93.80
2022-10-01T22:41:39.290Z,93.50
2022-10-01T22:44:20.051Z,92.80
2022-10-01T22:47:35.376Z,92.70
2022-10-01T22:50:32.500Z,92.50
2022-10-01T22:53:31.714Z,93.40
2022-10-01T22:56:02.629Z,93.20
2022-10-01T22:58:59.040Z,93.70
2022-10-01T23:01:51.187Z,94.00
2022-10-01T23:04:58.787Z,93.70
2022-10-01T23:07:42.902Z,93.80
2022-10-01T23:10:23.774Z,93.30
2022-10-01T23:13:35.843Z,92.70
2022-10-01T23:16:17.824Z,92.50
2022-10-01T23:19:02.192Z,93.30
2022-10-01T23:21:42.975Z,93.70
2022-10-01T23:24:23.096Z,92.80
2022-10-01T23:26:54.089Z,92.60
2022-10-01T23:29:41.653Z,92.40
2022-10-01T23:32:50.928Z,93.00
2022-10-01T23:35:23.965Z,94.80
2022-10-01T23:38:16.929Z,94.10
2022-10-01T23:40:53.261Z,93.70
2022-10-01T23:43:33.821Z,92.60
2022-10-01T23:46:29.278Z,93.20
2022-10-01T23:49:13.098Z,92.90
2022-10-01T23:52:02.251Z,92.60
2022-10-01T23:54:41.716Z,95.80
2022-10-01T23:57:27.783Z,94.10
